createdAt,value
2023-11-18T00:02:02.466Z,12.13
2023-11-18T00:04:29.276Z,11.70
2023-11-18T00:06:58.369Z,11.88
2023-11-18T00:09:25.888Z,12.50
2023-11-18T00:11:52.718Z,11.95
2023-11-18T00:14:22.146Z,10.82
2023-11-18T00:16:49.055Z,10.68
2023-11-18T00:19:15.843Z,11.45
2023-11-18T00:21:43.689Z,11.30
2023-11-18T00:24:10.573Z,11.15
2023-11-18T00:26:37.392Z,11.85
2023-11-18T00:29:04.514Z,11.55
2023-11-18T00:31:31.439Z,11.32
2023-11-18T00:33:58.310Z,11.52
2023-11-18T00:36:25.066Z,12.20
2023-11-18T00:38:52.264Z,12.98
2023-11-18T00:41:19.029Z,13.27
2023-11-18T00:43:45.884Z,13.27
2023-11-18T00:46:13.227Z,12.55
2023-11-18T00:48:40.569Z,13.10
2023-11-18T00:51:08.563Z,13.88
2023-11-18T00:53:35.373Z,13.80
2023-11-18T00:56:02.882Z,13.00
2023-11-18T00:58:30.210Z,13.07
2023-11-18T01:00:57.109Z,13.43
2023-11-18T01:03:24.570Z,13.52
2023-11-18T01:05:51.666Z,13.48
2023-11-18T01:08:19.030Z,12.40
2023-11-18T01:10:45.844Z,12.30
2023-11-18T01:13:12.634Z,12.82
2023-11-18T01:15:39.447Z,13.27
2023-11-18T01:18:07.551Z,12.20
2023-11-18T01:20:35.340Z,13.38
2023-11-18T01:23:02.171Z,13.27
2023-11-18T01:25:29.017Z,12.88
2023-11-18T01:27:56.245Z,11.18
2023-11-18T01:30:25.000Z,12.05
2023-11-18T01:32:52.034Z,11.55
2023-11-18T01:35:19.061Z,10.27
2023-11-18T01:37:46.465Z,9.57
2023-11-18T01:40:14.230Z,9.68
2023-11-18T01:42:44.363Z,10.13
2023-11-18T01:45:12.922Z,9.20
2023-11-18T01:47:41.559Z,11.00
2023-11-18T01:50:13.643Z,10.65
2023-11-18T01:52:44.113Z,10.65
2023-11-18T01:55:14.313Z,10.02
2023-11-18T01:57:44.736Z,10.55
2023-11-18T02:00:13.178Z,10.35
2023-11-18T02:02:41.009Z,9.75
2023-11-18T02:05:08.777Z,9.35
2023-11-18T02:07:39.707Z,10.30
2023-11-18T02:10:10.381Z,9.98
2023-11-18T02:13:07.062Z,11.35
2023-11-18T02:15:36.630Z,10.93
2023-11-18T02:18:06.872Z,10.85
2023-11-18T02:20:35.559Z,11.23
2023-11-18T02:23:03.613Z,12.10
2023-11-18T02:25:34.025Z,10.52
2023-11-18T02:28:01.131Z,10.80
2023-11-18T02:30:31.968Z,11.02
2023-11-18T02:32:58.813Z,10.15
2023-11-18T02:35:39.363Z,8.63
2023-11-18T02:38:08.808Z,9.93
2023-11-18T02:40:39.175Z,10.15
2023-11-18T02:43:06.816Z,11.88
2023-11-18T02:45:37.141Z,13.20
2023-11-18T02:48:07.468Z,12.90
2023-11-18T02:50:36.561Z,12.57
2023-11-18T02:53:03.989Z,13.93
2023-11-18T02:55:31.017Z,14.30
2023-11-18T02:57:58.337Z,14.80
2023-11-18T03:00:25.279Z,14.32
2023-11-18T03:02:53.374Z,14.18
2023-11-18T03:05:21.659Z,14.15
2023-11-18T03:07:51.456Z,13.15
2023-11-18T03:10:23.492Z,13.23
2023-11-18T03:12:54.790Z,13.15
2023-11-18T03:15:22.904Z,13.32
2023-11-18T03:17:51.165Z,12.98
2023-11-18T03:20:19.399Z,12.73
2023-11-18T03:22:47.242Z,13.18
2023-11-18T03:25:14.947Z,13.80
2023-11-18T03:27:41.891Z,13.40
2023-11-18T03:30:09.999Z,12.73
2023-11-18T03:32:41.104Z,12.70
2023-11-18T03:35:10.426Z,13.57
2023-11-18T03:37:42.742Z,14.18
2023-11-18T03:40:14.644Z,12.35
2023-11-18T03:42:42.992Z,12.32
2023-11-18T03:45:10.984Z,12.25
2023-11-18T03:47:38.041Z,12.13
2023-11-18T03:50:06.537Z,12.38
2023-11-18T03:52:33.424Z,11.95
2023-11-18T03:55:00.275Z,11.38
2023-11-18T03:57:27.252Z,11.25
2023-11-18T03:59:55.002Z,11.52
2023-11-18T04:02:21.828Z,11.93
2023-11-18T04:04:50.218Z,12.55
2023-11-18T04:07:17.077Z,11.85
2023-11-18T04:09:44.631Z,12.02
2023-11-18T04:12:11.959Z,13.25
2023-11-18T04:14:39.386Z,11.52
2023-11-18T04:17:07.306Z,11.02
2023-11-18T04:19:36.190Z,11.75
2023-11-18T04:22:03.064Z,11.35
2023-11-18T04:24:30.299Z,11.38
2023-11-18T04:26:57.151Z,11.80
2023-11-18T04:29:24.378Z,11.05
2023-11-18T04:31:51.678Z,10.88
2023-11-18T04:34:18.451Z,12.45
2023-11-18T04:36:45.873Z,11.70
2023-11-18T04:39:13.193Z,12.20
2023-11-18T04:41:40.985Z,11.50
2023-11-18T04:44:08.572Z,12.02
2023-11-18T04:46:37.565Z,12.07
2023-11-18T04:49:04.423Z,12.85
2023-11-18T04:51:31.318Z,12.63
2023-11-18T04:53:58.084Z,12.02
2023-11-18T04:56:24.839Z,12.30
2023-11-18T04:58:51.620Z,13.30
2023-11-18T05:01:19.521Z,12.55
2023-11-18T05:03:46.525Z,12.57
2023-11-18T05:06:14.214Z,13.88
2023-11-18T05:08:41.050Z,12.65
2023-11-18T05:11:07.919Z,12.50
2023-11-18T05:13:35.131Z,14.07
2023-11-18T05:16:02.398Z,12.07
2023-11-18T05:18:34.526Z,10.65
2023-11-18T05:21:01.744Z,10.60
2023-11-18T05:23:30.549Z,11.68
2023-11-18T05:25:57.623Z,12.82
2023-11-18T05:28:25.534Z,11.52
2023-11-18T05:30:53.417Z,15.60
2023-11-18T05:33:21.388Z,14.38
2023-11-18T05:35:51.093Z,16.30
2023-11-18T05:38:20.063Z,14.73
2023-11-18T05:40:57.613Z,12.38
2023-11-18T05:43:31.088Z,12.38
2023-11-18T05:46:21.387Z,12.07
2023-11-18T05:48:49.811Z,16.10
2023-11-18T05:51:21.743Z,13.82
2023-11-18T05:53:48.612Z,15.40
2023-11-18T05:56:19.488Z,18.52
2023-11-18T05:58:47.031Z,16.75
2023-11-18T06:01:14.494Z,17.60
2023-11-18T06:03:43.421Z,15.70
2023-11-18T06:06:12.404Z,14.80
2023-11-18T06:08:42.278Z,14.65
2023-11-18T06:11:16.619Z,13.55
2023-11-18T06:13:50.711Z,13.25
2023-11-18T06:16:21.844Z,13.20
2023-11-18T06:18:50.948Z,13.98
2023-11-18T06:21:19.797Z,13.98
2023-11-18T06:23:48.419Z,14.45
2023-11-18T06:26:16.441Z,13.35
2023-11-18T06:28:45.333Z,14.45
2023-11-18T06:31:13.077Z,14.88
2023-11-18T06:33:44.090Z,15.13
2023-11-18T06:36:20.034Z,15.88
2023-11-18T06:38:50.107Z,14.57
2023-11-18T06:41:17.965Z,15.55
2023-11-18T06:43:55.036Z,15.40
2023-11-18T06:46:35.112Z,15.07
2023-11-18T06:49:08.077Z,12.70
2023-11-18T06:51:37.428Z,12.35
2023-11-18T06:54:14.680Z,14.18
2023-11-18T06:56:45.912Z,13.57
2023-11-18T06:59:15.863Z,12.20
2023-11-18T07:01:45.039Z,11.30
2023-11-18T07:04:12.603Z,11.25
2023-11-18T07:06:39.439Z,9.65
2023-11-18T07:09:33.921Z,9.63
2023-11-18T07:12:00.686Z,9.23
2023-11-18T07:14:28.214Z,8.98
2023-11-18T07:16:55.360Z,10.32
2023-11-18T07:19:22.713Z,8.40
2023-11-18T07:21:50.575Z,8.80
2023-11-18T07:24:18.383Z,8.23
2023-11-18T07:26:46.684Z,8.68
2023-11-18T07:29:14.075Z,7.35
2023-11-18T07:31:41.017Z,7.80
2023-11-18T07:34:08.013Z,7.82
2023-11-18T07:36:35.220Z,8.50
2023-11-18T07:39:03.747Z,7.15
2023-11-18T07:41:33.793Z,8.07
2023-11-18T07:44:02.304Z,8.15
2023-11-18T07:46:32.155Z,7.45
2023-11-18T07:48:59.833Z,7.85
2023-11-18T07:51:26.612Z,8.23
2023-11-18T07:53:56.360Z,8.27
2023-11-18T07:56:24.351Z,8.15
2023-11-18T07:58:53.005Z,8.45
2023-11-18T08:01:22.929Z,8.55
2023-11-18T08:03:52.075Z,7.38
2023-11-18T08:06:19.160Z,6.82
2023-11-18T08:08:46.842Z,7.18
2023-11-18T08:11:14.963Z,6.10
2023-11-18T08:13:42.405Z,6.68
2023-11-18T08:16:10.281Z,5.97
2023-11-18T08:18:37.908Z,6.00
2023-11-18T08:21:08.078Z,6.53
2023-11-18T08:23:35.193Z,6.03
2023-11-18T08:26:02.016Z,5.78
2023-11-18T08:28:28.849Z,6.32
2023-11-18T08:30:55.708Z,6.03
2023-11-18T08:33:25.320Z,6.63
2023-11-18T08:35:52.227Z,7.13
2023-11-18T08:38:19.177Z,7.40
2023-11-18T08:40:46.904Z,6.75
2023-11-18T08:43:14.365Z,6.38
2023-11-18T08:45:42.515Z,6.03
2023-11-18T08:48:10.097Z,6.00
2023-11-18T08:50:39.797Z,5.80
2023-11-18T08:53:11.355Z,5.88
2023-11-18T08:55:43.883Z,6.55
2023-11-18T08:58:35.133Z,6.93
2023-11-18T09:01:14.936Z,7.50
2023-11-18T09:03:53.698Z,5.68
2023-11-18T09:06:30.182Z,5.22
2023-11-18T09:08:58.545Z,5.05
2023-11-18T09:11:30.461Z,4.47
2023-11-18T09:13:58.643Z,4.38
2023-11-18T09:16:30.590Z,4.55
2023-11-18T09:19:00.685Z,3.92
2023-11-18T09:21:30.781Z,5.53
2023-11-18T09:23:58.126Z,5.60
2023-11-18T09:26:26.960Z,4.47
2023-11-18T09:28:54.132Z,3.85
2023-11-18T09:31:22.781Z,3.22
2023-11-18T09:33:58.505Z,3.60
2023-11-18T09:36:29.749Z,2.85
2023-11-18T09:38:56.613Z,3.28
2023-11-18T09:41:27.990Z,2.72
2023-11-18T09:43:58.110Z,3.13
2023-11-18T09:46:30.721Z,3.13
2023-11-18T09:49:26.754Z,2.92
2023-11-18T09:51:58.685Z,3.05
2023-11-18T09:54:53.497Z,3.97
2023-11-18T09:57:34.595Z,3.88
2023-11-18T10:00:23.145Z,3.85
2023-11-18T10:02:53.956Z,4.18
2023-11-18T10:05:22.429Z,4.55
2023-11-18T10:07:50.100Z,4.28
2023-11-18T10:10:17.585Z,5.70
2023-11-18T10:12:46.053Z,5.05
2023-11-18T10:15:15.462Z,4.82
2023-11-18T10:17:56.317Z,4.57
2023-11-18T10:20:26.972Z,5.97
2023-11-18T10:23:13.755Z,6.07
2023-11-18T10:25:54.380Z,6.22
2023-11-18T10:28:50.967Z,6.15
2023-11-18T10:31:20.135Z,6.88
2023-11-18T10:33:47.549Z,7.28
2023-11-18T10:36:24.982Z,7.70
2023-11-18T10:38:56.569Z,8.10
2023-11-18T10:41:24.301Z,7.57
2023-11-18T10:44:14.945Z,8.93
2023-11-18T10:46:55.136Z,9.35
2023-11-18T10:49:22.472Z,8.45
2023-11-18T10:51:51.646Z,8.75
2023-11-18T10:54:20.278Z,8.90
2023-11-18T10:56:51.136Z,9.30
2023-11-18T10:59:19.406Z,8.15
2023-11-18T11:01:50.093Z,8.15
2023-11-18T11:04:23.342Z,9.05
2023-11-18T11:06:54.753Z,8.45
2023-11-18T11:09:28.251Z,8.52
2023-11-18T11:12:00.343Z,8.93
2023-11-18T11:14:36.646Z,9.10
2023-11-18T11:17:18.819Z,8.35
2023-11-18T11:19:57.069Z,8.82
2023-11-18T11:22:31.172Z,9.05
2023-11-18T11:25:04.963Z,8.48
2023-11-18T11:27:40.882Z,8.02
2023-11-18T11:30:21.968Z,8.60
2023-11-18T11:33:00.699Z,9.27
2023-11-18T11:35:40.045Z,8.50
2023-11-18T11:38:11.206Z,8.68
2023-11-18T11:40:39.063Z,9.63
2023-11-18T11:43:10.881Z,9.30
2023-11-18T11:45:40.252Z,8.90
2023-11-18T11:48:15.980Z,9.18
2023-11-18T11:51:04.995Z,9.25
2023-11-18T11:53:37.252Z,9.10
2023-11-18T11:56:15.235Z,9.25
2023-11-18T11:58:46.116Z,8.63
2023-11-18T12:01:39.614Z,9.18
2023-11-18T12:04:21.803Z,9.35
2023-11-18T12:06:49.313Z,9.75
2023-11-18T12:09:20.899Z,9.32
2023-11-18T12:11:52.035Z,8.73
2023-11-18T12:14:25.248Z,9.13
2023-11-18T12:17:11.557Z,9.35
2023-11-18T12:19:49.678Z,9.25
2023-11-18T12:22:25.476Z,11.00
2023-11-18T12:24:59.046Z,10.50
2023-11-18T12:27:53.609Z,9.55
2023-11-18T12:30:26.889Z,9.35
2023-11-18T12:33:10.201Z,9.85
2023-11-18T12:35:52.802Z,9.65
2023-11-18T12:38:46.717Z,9.30
2023-11-18T12:41:38.994Z,9.10
2023-11-18T12:44:36.762Z,10.05
2023-11-18T12:47:20.203Z,8.73
2023-11-18T12:49:56.547Z,8.50
2023-11-18T12:52:24.597Z,8.82
2023-11-18T12:54:52.215Z,8.27
2023-11-18T12:57:24.175Z,8.82
2023-11-18T12:59:51.356Z,8.98
2023-11-18T13:02:21.940Z,7.90
2023-11-18T13:04:50.581Z,8.45
2023-11-18T13:07:18.665Z,8.18
2023-11-18T13:09:47.057Z,8.13
2023-11-18T13:12:16.376Z,7.82
2023-11-18T13:14:44.054Z,7.93
2023-11-18T13:17:13.149Z,7.88
2023-11-18T13:19:44.023Z,6.68
2023-11-18T13:22:12.678Z,6.55
2023-11-18T13:24:47.114Z,8.80
2023-11-18T13:27:17.459Z,7.05
2023-11-18T13:29:52.317Z,5.88
2023-11-18T13:32:24.246Z,5.68
2023-11-18T13:34:52.792Z,5.60
2023-11-18T13:37:23.572Z,6.05
2023-11-18T13:39:57.487Z,6.10
2023-11-18T13:42:32.006Z,5.22
2023-11-18T13:45:09.478Z,5.53
2023-11-18T13:47:38.039Z,4.35
2023-11-18T13:50:09.757Z,3.95
2023-11-18T13:52:39.656Z,4.43
2023-11-18T13:55:08.288Z,3.78
2023-11-18T13:57:35.937Z,3.58
2023-11-18T14:00:03.230Z,3.60
2023-11-18T14:02:33.101Z,3.97
2023-11-18T14:05:01.244Z,4.05
2023-11-18T14:07:28.795Z,4.25
2023-11-18T14:09:57.906Z,4.68
2023-11-18T14:12:28.674Z,4.65
2023-11-18T14:14:55.745Z,4.35
2023-11-18T14:17:22.775Z,4.72
2023-11-18T14:19:51.094Z,5.13
2023-11-18T14:22:18.160Z,5.03
2023-11-18T14:24:44.907Z,4.95
2023-11-18T14:27:12.091Z,4.72
2023-11-18T14:29:39.238Z,4.88
2023-11-18T14:32:07.455Z,5.15
2023-11-18T14:34:34.562Z,4.78
2023-11-18T14:37:02.329Z,5.07
2023-11-18T14:39:29.136Z,5.20
2023-11-18T14:41:56.370Z,5.88
2023-11-18T14:44:23.287Z,5.25
2023-11-18T14:46:50.194Z,5.30
2023-11-18T14:49:17.902Z,5.20
2023-11-18T14:51:44.776Z,4.88
2023-11-18T14:54:11.679Z,5.80
2023-11-18T14:56:38.979Z,6.20
2023-11-18T14:59:09.168Z,5.75
2023-11-18T15:01:36.306Z,5.45
2023-11-18T15:04:06.763Z,5.82
2023-11-18T15:06:33.839Z,4.78
2023-11-18T15:09:00.798Z,6.07
2023-11-18T15:11:27.804Z,6.47
2023-11-18T15:13:55.081Z,5.55
2023-11-18T15:16:22.316Z,5.90
2023-11-18T15:18:51.542Z,6.13
2023-11-18T15:21:19.517Z,5.45
2023-11-18T15:23:46.682Z,5.13
2023-11-18T15:26:13.503Z,5.53
2023-11-18T15:28:40.276Z,5.10
2023-11-18T15:31:07.148Z,5.55
2023-11-18T15:33:34.693Z,5.47
2023-11-18T15:36:02.266Z,6.30
2023-11-18T15:38:29.105Z,5.03
2023-11-18T15:40:56.108Z,4.47
2023-11-18T15:43:23.340Z,4.63
2023-11-18T15:45:50.261Z,4.70
2023-11-18T15:48:17.349Z,4.40
2023-11-18T15:50:44.420Z,4.65
2023-11-18T15:53:15.338Z,4.55
2023-11-18T15:55:45.243Z,4.57
2023-11-18T15:58:12.378Z,4.90
2023-11-18T16:00:39.434Z,6.00
2023-11-18T16:03:10.253Z,5.85
2023-11-18T16:05:37.738Z,5.65
2023-11-18T16:08:08.249Z,7.18
2023-11-18T16:10:35.631Z,6.45
2023-11-18T16:13:03.489Z,7.30
2023-11-18T16:15:31.563Z,6.75
2023-11-18T16:17:59.822Z,7.97
2023-11-18T16:20:28.895Z,8.13
2023-11-18T16:22:58.266Z,7.25
2023-11-18T16:25:29.115Z,6.72
2023-11-18T16:27:59.471Z,8.07
2023-11-18T16:30:30.678Z,7.28
2023-11-18T16:32:59.074Z,8.38
2023-11-18T16:35:27.111Z,9.50
2023-11-18T16:37:54.398Z,8.55
2023-11-18T16:40:22.241Z,8.75
2023-11-18T16:42:56.384Z,9.77
2023-11-18T16:45:25.056Z,7.85
2023-11-18T16:47:53.562Z,8.98
2023-11-18T16:50:22.045Z,11.82
2023-11-18T16:52:49.140Z,10.85
2023-11-18T16:55:16.363Z,10.10
2023-11-18T16:57:43.334Z,11.35
2023-11-18T17:00:20.689Z,11.07
2023-11-18T17:02:51.919Z,9.18
2023-11-18T17:05:18.918Z,10.45
2023-11-18T17:07:46.680Z,9.07
2023-11-18T17:10:13.716Z,8.60
2023-11-18T17:12:46.108Z,8.50
2023-11-18T17:15:16.696Z,9.40
2023-11-18T17:17:45.708Z,9.68
2023-11-18T17:20:16.465Z,8.43
2023-11-18T17:22:44.127Z,7.93
2023-11-18T17:25:16.434Z,7.70
2023-11-18T17:27:44.779Z,7.60
2023-11-18T17:30:14.199Z,7.85
2023-11-18T17:32:42.056Z,7.82
2023-11-18T17:35:16.899Z,7.03
2023-11-18T17:37:45.380Z,8.32
2023-11-18T17:40:13.478Z,7.30
2023-11-18T17:42:41.417Z,7.63
2023-11-18T17:45:09.540Z,7.55
2023-11-18T17:47:38.616Z,7.80
2023-11-18T17:50:10.176Z,7.78
2023-11-18T17:52:37.685Z,7.57
2023-11-18T17:55:05.686Z,7.95
2023-11-18T17:57:32.901Z,7.82
2023-11-18T17:59:59.873Z,6.55
2023-11-18T18:02:27.183Z,6.90
2023-11-18T18:04:54.082Z,7.18
2023-11-18T18:07:20.871Z,7.55
2023-11-18T18:09:47.964Z,7.93
2023-11-18T18:12:14.786Z,7.28
2023-11-18T18:14:41.632Z,8.60
2023-11-18T18:17:08.535Z,8.20
2023-11-18T18:19:35.363Z,7.47
2023-11-18T18:22:02.197Z,7.47
2023-11-18T18:24:29.065Z,8.73
2023-11-18T18:26:55.865Z,7.50
2023-11-18T18:29:22.720Z,8.23
2023-11-18T18:31:49.869Z,9.23
2023-11-18T18:34:17.805Z,8.60
2023-11-18T18:36:44.587Z,8.65
2023-11-18T18:39:13.177Z,8.05
2023-11-18T18:41:39.969Z,8.10
2023-11-18T18:44:07.341Z,7.65
2023-11-18T18:46:34.084Z,6.63
2023-11-18T18:49:00.826Z,7.22
2023-11-18T18:51:27.596Z,6.00
2023-11-18T18:53:54.755Z,6.78
2023-11-18T18:56:22.054Z,6.40
2023-11-18T18:58:49.469Z,5.85
2023-11-18T19:01:16.533Z,7.03
2023-11-18T19:03:43.393Z,5.72
2023-11-18T19:06:12.862Z,5.82
2023-11-18T19:08:40.813Z,6.63
2023-11-18T19:11:07.731Z,5.80
2023-11-18T19:13:34.738Z,6.07
2023-11-18T19:16:01.564Z,6.13
2023-11-18T19:18:29.166Z,6.10
2023-11-18T19:20:56.276Z,6.00
2023-11-18T19:23:23.345Z,6.15
2023-11-18T19:25:50.169Z,6.15
2023-11-18T19:28:17.308Z,5.72
2023-11-18T19:30:44.799Z,5.50
2023-11-18T19:33:13.017Z,5.40
2023-11-18T19:35:39.850Z,5.25
2023-11-18T19:38:08.120Z,5.63
2023-11-18T19:40:35.732Z,5.20
2023-11-18T19:43:03.436Z,4.38
2023-11-18T19:45:30.222Z,4.93
2023-11-18T19:47:59.976Z,4.57
2023-11-18T19:50:27.679Z,4.35
2023-11-18T19:52:55.190Z,5.10
2023-11-18T19:55:22.504Z,4.97
2023-11-18T19:57:49.273Z,5.75
2023-11-18T20:00:19.387Z,5.57
2023-11-18T20:02:46.823Z,5.88
2023-11-18T20:05:13.971Z,5.82
2023-11-18T20:07:41.087Z,6.60
2023-11-18T20:10:10.040Z,7.05
2023-11-18T20:12:37.271Z,7.43
2023-11-18T20:15:05.805Z,7.32
2023-11-18T20:17:33.462Z,8.43
2023-11-18T20:20:06.733Z,8.90
2023-11-18T20:22:36.563Z,8.05
2023-11-18T20:25:03.937Z,8.43
2023-11-18T20:27:30.688Z,8.45
2023-11-18T20:29:58.560Z,8.40
2023-11-18T20:32:25.379Z,8.57
2023-11-18T20:34:52.258Z,7.57
2023-11-18T20:37:19.003Z,7.65
2023-11-18T20:39:45.848Z,8.35
2023-11-18T20:42:13.386Z,9.20
2023-11-18T20:44:40.558Z,9.38
2023-11-18T20:47:08.710Z,9.57
2023-11-18T20:49:35.493Z,9.13
2023-11-18T20:52:02.381Z,9.18
2023-11-18T20:54:29.310Z,9.30
2023-11-18T20:56:56.402Z,8.95
2023-11-18T20:59:23.360Z,9.10
2023-11-18T21:01:51.559Z,9.50
2023-11-18T21:04:19.039Z,8.95
2023-11-18T21:06:46.044Z,10.05
2023-11-18T21:09:12.861Z,9.52
2023-11-18T21:11:39.746Z,10.93
2023-11-18T21:14:07.406Z,9.88
2023-11-18T21:16:34.286Z,10.40
2023-11-18T21:19:02.434Z,11.13
2023-11-18T21:21:30.077Z,11.13
2023-11-18T21:23:56.974Z,11.55
2023-11-18T21:26:25.790Z,11.50
2023-11-18T21:28:52.739Z,11.60
2023-11-18T21:31:19.558Z,11.48
2023-11-18T21:33:46.481Z,10.30
2023-11-18T21:36:16.119Z,11.70
2023-11-18T21:38:42.892Z,12.43
2023-11-18T21:41:09.821Z,12.50
2023-11-18T21:43:38.480Z,11.10
2023-11-18T21:46:05.486Z,12.18
2023-11-18T21:48:32.370Z,11.77
2023-11-18T21:50:59.197Z,11.93
2023-11-18T21:53:28.832Z,11.50
2023-11-18T21:55:56.490Z,12.63
2023-11-18T21:58:24.715Z,12.98
2023-11-18T22:00:52.274Z,12.82
2023-11-18T22:03:19.398Z,13.43
2023-11-18T22:05:48.399Z,12.85
2023-11-18T22:08:20.331Z,13.55
2023-11-18T22:10:47.476Z,13.80
2023-11-18T22:13:15.427Z,14.23
2023-11-18T22:15:42.418Z,13.15
2023-11-18T22:18:11.925Z,12.88
2023-11-18T22:20:39.249Z,12.57
2023-11-18T22:23:07.276Z,13.13
2023-11-18T22:25:34.133Z,12.00
2023-11-18T22:28:03.742Z,12.70
2023-11-18T22:30:30.559Z,13.75
2023-11-18T22:33:01.010Z,13.85
2023-11-18T22:35:28.537Z,13.73
2023-11-18T22:38:00.295Z,12.60
2023-11-18T22:40:27.781Z,14.27
2023-11-18T22:42:54.840Z,14.05
2023-11-18T22:45:21.772Z,14.43
2023-11-18T22:47:51.567Z,14.13
2023-11-18T22:50:22.346Z,13.45
2023-11-18T22:52:54.382Z,13.27
2023-11-18T22:55:21.445Z,15.13
2023-11-18T22:57:48.717Z,14.25
2023-11-18T23:00:34.959Z,15.77
2023-11-18T23:03:03.209Z,14.40
2023-11-18T23:05:30.509Z,14.55
2023-11-18T23:07:57.806Z,16.17
2023-11-18T23:10:25.987Z,15.10
2023-11-18T23:12:53.815Z,16.20
2023-11-18T23:15:23.008Z,16.88
2023-11-18T23:17:50.641Z,15.57
2023-11-18T23:20:19.162Z,16.05
2023-11-18T23:22:46.464Z,15.52
2023-11-18T23:25:13.287Z,14.70
2023-11-18T23:27:42.156Z,15.98
2023-11-18T23:30:10.928Z,15.90
2023-11-18T23:32:38.274Z,15.80
2023-11-18T23:35:07.140Z,15.90
2023-11-18T23:37:33.969Z,16.88
2023-11-18T23:40:00.846Z,16.45
2023-11-18T23:42:27.610Z,15.55
2023-11-18T23:44:55.078Z,15.32
2023-11-18T23:47:22.065Z,15.18
2023-11-18T23:49:57.347Z,15.15
2023-11-18T23:52:24.546Z,14.48
2023-11-18T23:54:51.418Z,15.20
2023-11-18T23:57:18.872Z,16.52
2023-11-18T23:59:45.663Z,14.32
